createdAt,value
2022-09-26T00:01:56.799Z,100.00
2022-09-26T00:04:46.238Z,100.00
2022-09-26T00:07:33.594Z,100.00
2022-09-26T00:10:21.987Z,100.00
2022-09-26T00:13:11.452Z,100.00
2022-09-26T00:15:59.869Z,100.00
2022-09-26T00:18:50.583Z,100.00
2022-09-26T00:21:41.346Z,100.00
2022-09-26T00:24:30.024Z,100.00
2022-09-26T00:27:22.625Z,100.00
2022-09-26T00:30:12.466Z,100.00
2022-09-26T00:33:00.296Z,100.00
2022-09-26T00:35:52.285Z,100.00
2022-09-26T00:38:42.241Z,100.00
2022-09-26T00:41:30.439Z,100.00
2022-09-26T00:44:43.917Z,100.00
2022-09-26T00:47:45.093Z,100.00
2022-09-26T00:50:38.966Z,100.00
2022-09-26T00:53:34.879Z,100.00
2022-09-26T00:56:31.919Z,100.00
2022-09-26T00:59:28.373Z,100.00
2022-09-26T01:02:18.099Z,100.00
2022-09-26T01:05:08.574Z,100.00
2022-09-26T01:07:58.350Z,100.00
2022-09-26T01:10:46.075Z,100.00
2022-09-26T01:13:37.740Z,100.00
2022-09-26T01:16:26.023Z,100.00
2022-09-26T01:19:30.289Z,100.00
2022-09-26T01:23:04.333Z,100.00
2022-09-26T01:26:35.837Z,100.00
2022-09-26T01:30:08.727Z,100.00
2022-09-26T01:33:36.731Z,100.00
2022-09-26T01:37:04.559Z,100.00
2022-09-26T01:40:06.474Z,100.00
2022-09-26T01:43:08.956Z,100.00
2022-09-26T01:46:09.133Z,100.00
2022-09-26T01:49:12.282Z,100.00
2022-09-26T01:52:07.140Z,100.00
2022-09-26T01:55:03.442Z,100.00
2022-09-26T01:57:56.556Z,100.00
2022-09-26T02:00:49.113Z,100.00
2022-09-26T02:03:44.728Z,100.00
2022-09-26T02:06:42.149Z,100.00
2022-09-26T02:09:36.818Z,100.00
2022-09-26T02:12:33.320Z,100.00
2022-09-26T02:15:25.862Z,100.00
2022-09-26T02:18:21.696Z,100.00
2022-09-26T02:21:18.943Z,100.00
2022-09-26T02:24:07.367Z,100.00
2022-09-26T02:26:57.276Z,100.00
2022-09-26T02:29:46.236Z,100.00
2022-09-26T02:32:35.372Z,100.00
2022-09-26T02:35:43.877Z,100.00
2022-09-26T02:38:39.077Z,100.00
2022-09-26T02:41:41.240Z,100.00
2022-09-26T02:44:56.874Z,100.00
2022-09-26T02:48:16.966Z,100.00
2022-09-26T02:51:27.751Z,100.00
2022-09-26T02:54:30.241Z,100.00
2022-09-26T02:57:34.355Z,100.00
2022-09-26T03:00:26.827Z,100.00
2022-09-26T03:03:24.270Z,100.00
2022-09-26T03:06:18.907Z,100.00
2022-09-26T03:09:09.597Z,100.00
2022-09-26T03:12:06.357Z,100.00
2022-09-26T03:15:04.254Z,100.00
2022-09-26T03:17:58.145Z,100.00
2022-09-26T03:20:50.102Z,100.00
2022-09-26T03:23:38.504Z,100.00
2022-09-26T03:26:30.766Z,100.00
2022-09-26T03:29:20.492Z,100.00
2022-09-26T03:32:10.665Z,100.00
2022-09-26T03:34:59.263Z,100.00
2022-09-26T03:37:48.001Z,100.00
2022-09-26T03:40:37.326Z,100.00
2022-09-26T03:43:24.984Z,100.00
2022-09-26T03:46:15.977Z,100.00
2022-09-26T03:49:04.146Z,100.00
2022-09-26T03:51:52.504Z,100.00
2022-09-26T03:54:40.818Z,100.00
2022-09-26T03:57:28.546Z,100.00
2022-09-26T04:00:17.244Z,100.00
2022-09-26T04:03:06.971Z,100.00
2022-09-26T04:05:55.626Z,100.00
2022-09-26T04:08:43.786Z,100.00
2022-09-26T04:11:31.558Z,100.00
2022-09-26T04:14:20.247Z,100.00
2022-09-26T04:17:08.730Z,100.00
2022-09-26T04:19:59.778Z,100.00
2022-09-26T04:22:47.699Z,100.00
2022-09-26T04:25:39.083Z,100.00
2022-09-26T04:28:26.940Z,100.00
2022-09-26T04:31:15.351Z,100.00
2022-09-26T04:34:03.232Z,100.00
2022-09-26T04:36:57.036Z,100.00
2022-09-26T04:39:44.987Z,100.00
2022-09-26T04:42:36.904Z,100.00
2022-09-26T04:45:24.906Z,100.00
2022-09-26T04:48:12.455Z,100.00
2022-09-26T04:51:00.006Z,100.00
2022-09-26T04:53:50.441Z,100.00
2022-09-26T04:56:38.321Z,100.00
2022-09-26T04:59:26.175Z,100.00
2022-09-26T05:02:14.018Z,100.00
2022-09-26T05:05:01.844Z,100.00
2022-09-26T05:07:49.248Z,100.00
2022-09-26T05:10:38.142Z,100.00
2022-09-26T05:13:27.712Z,100.00
2022-09-26T05:16:16.305Z,100.00
2022-09-26T05:19:04.517Z,100.00
2022-09-26T05:21:52.517Z,100.00
2022-09-26T05:24:57.938Z,100.00
2022-09-26T05:27:47.640Z,100.00
2022-09-26T05:30:36.547Z,100.00
2022-09-26T05:33:24.607Z,100.00
2022-09-26T05:36:12.885Z,100.00
2022-09-26T05:39:03.954Z,100.00
2022-09-26T05:41:53.347Z,100.00
2022-09-26T05:44:42.612Z,100.00
2022-09-26T05:47:32.262Z,100.00
2022-09-26T05:50:22.357Z,100.00
2022-09-26T05:53:09.890Z,100.00
2022-09-26T05:55:57.297Z,100.00
2022-09-26T05:58:44.926Z,100.00
2022-09-26T06:01:35.419Z,100.00
2022-09-26T06:04:22.901Z,100.00
2022-09-26T06:07:10.543Z,100.00
2022-09-26T06:09:58.139Z,100.00
2022-09-26T06:12:50.689Z,100.00
2022-09-26T06:15:39.889Z,100.00
2022-09-26T06:18:29.009Z,100.00
2022-09-26T06:21:19.853Z,100.00
2022-09-26T06:24:07.643Z,100.00
2022-09-26T06:26:55.013Z,100.00
2022-09-26T06:29:42.448Z,100.00
2022-09-26T06:32:29.833Z,100.00
2022-09-26T06:35:19.705Z,100.00
2022-09-26T06:38:07.711Z,100.00
2022-09-26T06:40:55.888Z,100.00
2022-09-26T06:43:44.932Z,100.00
2022-09-26T06:46:32.639Z,100.00
2022-09-26T06:49:20.277Z,100.00
2022-09-26T06:52:11.085Z,100.00
2022-09-26T06:54:58.548Z,100.00
2022-09-26T06:57:46.048Z,100.00
2022-09-26T07:00:35.804Z,100.00
2022-09-26T07:03:26.663Z,100.00
2022-09-26T07:06:14.488Z,100.00
2022-09-26T07:09:07.569Z,100.00
2022-09-26T07:12:15.780Z,100.00
2022-09-26T07:15:04.666Z,100.00
2022-09-26T07:17:52.407Z,100.00
2022-09-26T07:20:43.086Z,100.00
2022-09-26T07:23:30.731Z,100.00
2022-09-26T07:26:19.523Z,100.00
2022-09-26T07:29:07.198Z,100.00
2022-09-26T07:31:55.317Z,100.00
2022-09-26T07:34:43.974Z,100.00
2022-09-26T07:37:32.303Z,100.00
2022-09-26T07:40:21.729Z,100.00
2022-09-26T07:43:20.514Z,100.00
2022-09-26T07:46:26.151Z,100.00
2022-09-26T07:49:31.365Z,100.00
2022-09-26T07:52:22.562Z,100.00
2022-09-26T07:55:12.831Z,100.00
2022-09-26T07:58:00.738Z,100.00
2022-09-26T08:00:49.616Z,100.00
2022-09-26T08:03:37.042Z,100.00
2022-09-26T08:06:33.239Z,100.00
2022-09-26T08:09:20.994Z,100.00
2022-09-26T08:12:09.564Z,100.00
2022-09-26T08:14:57.956Z,100.00
2022-09-26T08:17:46.753Z,100.00
2022-09-26T08:20:35.720Z,100.00
2022-09-26T08:23:23.469Z,100.00
2022-09-26T08:26:11.638Z,100.00
2022-09-26T08:28:59.949Z,100.00
2022-09-26T08:31:48.682Z,100.00
2022-09-26T08:34:39.011Z,100.00
2022-09-26T08:37:27.897Z,100.00
2022-09-26T08:40:16.004Z,100.00
2022-09-26T08:43:19.588Z,100.00
2022-09-26T08:46:41.882Z,100.00
2022-09-26T08:49:51.264Z,100.00
2022-09-26T08:52:45.293Z,100.00
2022-09-26T08:55:40.985Z,100.00
2022-09-26T08:58:38.698Z,100.00
2022-09-26T09:01:31.226Z,100.00
2022-09-26T09:04:28.800Z,100.00
2022-09-26T09:07:24.379Z,100.00
2022-09-26T09:10:19.009Z,100.00
2022-09-26T09:13:24.015Z,100.00
2022-09-26T09:16:30.007Z,100.00
2022-09-26T09:19:35.421Z,100.00
2022-09-26T09:22:58.299Z,100.00
2022-09-26T09:29:33.214Z,100.00
2022-09-26T09:32:28.335Z,100.00
2022-09-26T09:35:38.438Z,100.00
2022-09-26T09:38:39.360Z,100.00
2022-09-26T09:41:35.642Z,100.00
2022-09-26T09:44:46.364Z,100.00
2022-09-26T09:47:40.217Z,100.00
2022-09-26T09:50:49.777Z,100.00
2022-09-26T09:54:43.701Z,100.00
2022-09-26T09:58:27.239Z,100.00
2022-09-26T10:01:26.195Z,100.00
2022-09-26T10:04:35.204Z,100.00
2022-09-26T10:07:32.529Z,100.00
2022-09-26T10:10:28.808Z,100.00
2022-09-26T10:13:19.130Z,100.00
2022-09-26T10:16:09.387Z,100.00
2022-09-26T10:19:03.374Z,100.00
2022-09-26T10:21:52.871Z,100.00
2022-09-26T10:24:41.830Z,100.00
2022-09-26T10:27:54.671Z,100.00
2022-09-26T10:30:50.681Z,100.00
2022-09-26T10:33:46.066Z,100.00
2022-09-26T10:36:36.749Z,100.00
2022-09-26T10:39:44.442Z,100.00
2022-09-26T10:42:32.597Z,100.00
2022-09-26T10:45:27.417Z,100.00
2022-09-26T10:48:22.120Z,100.00
2022-09-26T10:51:11.810Z,99.48
2022-09-26T10:54:21.340Z,95.74
2022-09-26T10:57:20.930Z,98.14
2022-09-26T11:00:10.360Z,100.00
2022-09-26T11:02:59.533Z,100.00
2022-09-26T11:05:59.340Z,100.00
2022-09-26T11:08:54.025Z,98.26
2022-09-26T11:11:43.941Z,94.00
2022-09-26T11:14:34.339Z,93.32
2022-09-26T11:17:22.073Z,89.89
2022-09-26T11:20:21.675Z,93.64
2022-09-26T11:23:32.768Z,89.68
2022-09-26T11:29:53.191Z,87.81
2022-09-26T11:36:10.898Z,90.05
2022-09-26T11:39:13.234Z,81.63
2022-09-26T11:42:16.309Z,92.21
2022-09-26T11:45:16.472Z,82.63
2022-09-26T11:48:35.531Z,89.99
2022-09-26T11:51:46.040Z,82.55
2022-09-26T11:54:58.463Z,78.00
2022-09-26T11:58:03.419Z,89.98
2022-09-26T12:01:05.234Z,81.25
2022-09-26T12:04:15.829Z,87.77
2022-09-26T12:07:16.341Z,84.48
2022-09-26T12:10:21.045Z,83.95
2022-09-26T12:13:34.198Z,82.32
2022-09-26T12:16:35.881Z,81.65
2022-09-26T12:19:34.269Z,83.04
2022-09-26T12:22:36.112Z,81.80
2022-09-26T12:25:43.687Z,77.37
2022-09-26T12:29:05.703Z,78.45
2022-09-26T12:32:25.117Z,78.06
2022-09-26T12:35:36.297Z,80.55
2022-09-26T12:38:57.990Z,72.93
2022-09-26T12:42:11.985Z,79.35
2022-09-26T12:45:29.380Z,72.60
2022-09-26T12:48:44.517Z,79.86
2022-09-26T12:51:44.667Z,81.37
2022-09-26T12:55:09.608Z,82.57
2022-09-26T12:58:22.017Z,75.25
2022-09-26T13:01:28.409Z,82.32
2022-09-26T13:04:55.770Z,78.54
2022-09-26T13:08:02.187Z,88.40
2022-09-26T13:11:12.084Z,86.33
2022-09-26T13:14:39.487Z,86.72
2022-09-26T13:17:34.936Z,81.34
2022-09-26T13:20:32.559Z,82.23
2022-09-26T13:23:27.506Z,81.85
2022-09-26T13:26:26.171Z,82.69
2022-09-26T13:29:20.435Z,82.07
2022-09-26T13:32:22.965Z,81.14
2022-09-26T13:35:20.819Z,84.96
2022-09-26T13:38:45.301Z,81.75
2022-09-26T13:41:51.357Z,83.08
2022-09-26T13:45:09.794Z,79.04
2022-09-26T13:48:09.254Z,84.06
2022-09-26T13:51:31.924Z,81.33
2022-09-26T13:54:45.170Z,80.04
2022-09-26T13:57:51.640Z,78.92
2022-09-26T14:00:53.234Z,75.77
2022-09-26T14:03:44.510Z,78.83
2022-09-26T14:06:33.187Z,79.10
2022-09-26T14:09:29.797Z,77.59
2022-09-26T14:12:34.622Z,83.57
2022-09-26T14:15:28.361Z,84.26
2022-09-26T14:18:34.409Z,84.17
2022-09-26T14:21:38.404Z,85.22
2022-09-26T14:24:45.234Z,84.77
2022-09-26T14:27:47.918Z,83.57
2022-09-26T14:30:39.939Z,84.41
2022-09-26T14:33:27.800Z,80.33
2022-09-26T14:36:27.259Z,76.73
2022-09-26T14:39:50.009Z,79.21
2022-09-26T14:42:49.920Z,77.23
2022-09-26T14:46:12.132Z,78.61
2022-09-26T14:49:11.438Z,72.18
2022-09-26T14:52:06.465Z,75.68
2022-09-26T14:55:02.865Z,77.75
2022-09-26T14:57:50.730Z,75.66
2022-09-26T15:00:44.565Z,79.01
2022-09-26T15:03:35.634Z,79.62
2022-09-26T15:06:26.697Z,82.53
2022-09-26T15:09:25.016Z,84.51
2022-09-26T15:12:21.345Z,81.87
2022-09-26T15:15:30.206Z,83.63
2022-09-26T15:18:34.646Z,82.55
2022-09-26T15:21:34.162Z,83.52
2022-09-26T15:24:33.611Z,82.15
2022-09-26T15:27:29.791Z,86.51
2022-09-26T15:30:32.014Z,88.57
2022-09-26T15:33:26.273Z,90.25
2022-09-26T15:36:18.403Z,86.20
2022-09-26T15:39:42.001Z,89.62
2022-09-26T15:42:51.227Z,86.27
2022-09-26T15:45:59.261Z,88.66
2022-09-26T15:48:47.697Z,88.09
2022-09-26T15:51:41.503Z,89.94
2022-09-26T15:57:49.382Z,90.78
2022-09-26T16:00:43.715Z,89.24
2022-09-26T16:03:57.248Z,92.02
2022-09-26T16:07:03.136Z,90.92
2022-09-26T16:09:52.835Z,93.32
2022-09-26T16:12:49.483Z,93.11
2022-09-26T16:16:07.945Z,94.89
2022-09-26T16:18:59.910Z,93.09
2022-09-26T16:21:47.737Z,96.41
2022-09-26T16:24:35.478Z,96.48
2022-09-26T16:27:28.006Z,97.21
2022-09-26T16:30:45.740Z,96.89
2022-09-26T16:33:35.716Z,100.00
2022-09-26T16:36:26.268Z,100.00
2022-09-26T16:39:23.964Z,100.00
2022-09-26T16:42:18.668Z,100.00
2022-09-26T16:45:15.712Z,100.00
2022-09-26T16:48:04.433Z,100.00
2022-09-26T16:51:15.622Z,100.00
2022-09-26T16:54:19.357Z,100.00
2022-09-26T16:57:11.073Z,100.00
2022-09-26T17:00:19.901Z,100.00
2022-09-26T17:03:25.697Z,100.00
2022-09-26T17:06:13.409Z,100.00
2022-09-26T17:09:14.322Z,100.00
2022-09-26T17:12:17.943Z,100.00
2022-09-26T17:15:10.496Z,100.00
2022-09-26T17:18:07.084Z,100.00
2022-09-26T17:20:59.160Z,100.00
2022-09-26T17:23:48.888Z,100.00
2022-09-26T17:26:36.636Z,100.00
2022-09-26T17:29:30.347Z,100.00
2022-09-26T17:32:31.228Z,100.00
2022-09-26T17:35:26.298Z,100.00
2022-09-26T17:38:18.830Z,100.00
2022-09-26T17:41:07.487Z,100.00
2022-09-26T17:44:00.937Z,100.00
2022-09-26T17:46:52.295Z,100.00
2022-09-26T17:49:41.867Z,100.00
2022-09-26T17:52:32.830Z,100.00
2022-09-26T17:55:22.944Z,100.00
2022-09-26T17:58:12.211Z,100.00
2022-09-26T18:01:02.512Z,100.00
2022-09-26T18:03:55.638Z,100.00
2022-09-26T18:06:44.106Z,100.00
2022-09-26T18:09:36.258Z,100.00
2022-09-26T18:12:25.625Z,100.00
2022-09-26T18:15:21.103Z,100.00
2022-09-26T18:18:15.550Z,100.00
2022-09-26T18:21:04.125Z,100.00
2022-09-26T18:23:58.033Z,100.00
2022-09-26T18:26:50.698Z,100.00
2022-09-26T18:29:44.550Z,100.00
2022-09-26T18:32:39.062Z,100.00
2022-09-26T18:35:34.617Z,100.00
2022-09-26T18:38:23.741Z,100.00
2022-09-26T18:44:25.583Z,100.00
2022-09-26T18:47:28.741Z,100.00
2022-09-26T18:50:24.537Z,100.00
2022-09-26T18:53:19.230Z,100.00
2022-09-26T18:56:31.875Z,100.00
2022-09-26T18:59:24.575Z,100.00
2022-09-26T19:02:25.535Z,100.00
2022-09-26T19:05:17.955Z,100.00
2022-09-26T19:08:06.249Z,100.00
2022-09-26T19:10:54.874Z,100.00
2022-09-26T19:13:44.711Z,100.00
2022-09-26T19:16:32.643Z,100.00
2022-09-26T19:19:23.158Z,100.00
2022-09-26T19:22:17.554Z,100.00
2022-09-26T19:25:08.023Z,100.00
2022-09-26T19:27:55.850Z,100.00
2022-09-26T19:30:43.416Z,100.00
2022-09-26T19:33:31.657Z,100.00
2022-09-26T19:36:22.206Z,100.00
2022-09-26T19:39:15.261Z,100.00
2022-09-26T19:42:05.837Z,100.00
2022-09-26T19:44:53.988Z,100.00
2022-09-26T19:47:48.255Z,100.00
2022-09-26T19:50:40.633Z,100.00
2022-09-26T19:53:32.536Z,100.00
2022-09-26T19:56:20.693Z,100.00
2022-09-26T19:59:12.817Z,100.00
2022-09-26T20:02:01.094Z,100.00
2022-09-26T20:04:50.022Z,100.00
2022-09-26T20:07:38.265Z,100.00
2022-09-26T20:10:27.351Z,100.00
2022-09-26T20:13:16.169Z,100.00
2022-09-26T20:16:04.675Z,100.00
2022-09-26T20:18:55.785Z,100.00
2022-09-26T20:21:44.722Z,100.00
2022-09-26T20:24:38.044Z,100.00
2022-09-26T20:27:30.254Z,100.00
2022-09-26T20:30:37.398Z,100.00
2022-09-26T20:33:27.900Z,100.00
2022-09-26T20:36:16.521Z,100.00
2022-09-26T20:39:09.008Z,100.00
2022-09-26T20:41:57.221Z,100.00
2022-09-26T20:44:50.151Z,100.00
2022-09-26T20:47:41.497Z,100.00
2022-09-26T20:50:34.210Z,100.00
2022-09-26T20:53:24.532Z,100.00
2022-09-26T20:56:16.935Z,100.00
2022-09-26T20:59:05.683Z,100.00
2022-09-26T21:01:58.233Z,100.00
2022-09-26T21:04:46.381Z,100.00
2022-09-26T21:07:34.876Z,100.00
2022-09-26T21:10:29.225Z,100.00
2022-09-26T21:13:16.786Z,100.00
2022-09-26T21:16:04.722Z,100.00
2022-09-26T21:18:54.483Z,100.00
2022-09-26T21:21:42.172Z,100.00
2022-09-26T21:24:35.137Z,100.00
2022-09-26T21:31:47.601Z,100.00
2022-09-26T21:34:38.804Z,100.00
2022-09-26T21:37:26.570Z,100.00
2022-09-26T21:40:14.512Z,100.00
2022-09-26T21:43:08.985Z,100.00
2022-09-26T21:45:56.751Z,100.00
2022-09-26T21:48:44.726Z,100.00
2022-09-26T21:51:33.799Z,100.00
2022-09-26T21:54:28.002Z,100.00
2022-09-26T21:57:20.876Z,100.00
2022-09-26T22:00:11.484Z,100.00
2022-09-26T22:03:00.908Z,100.00
2022-09-26T22:05:48.709Z,100.00
2022-09-26T22:08:39.359Z,100.00
2022-09-26T22:11:27.025Z,100.00
2022-09-26T22:14:14.953Z,100.00
2022-09-26T22:17:02.927Z,100.00
2022-09-26T22:19:53.335Z,100.00
2022-09-26T22:22:40.863Z,100.00
2022-09-26T22:25:30.199Z,100.00
2022-09-26T22:28:18.156Z,100.00
2022-09-26T22:31:07.614Z,100.00
2022-09-26T22:33:59.360Z,100.00
2022-09-26T22:36:47.184Z,100.00
2022-09-26T22:39:35.040Z,100.00
2022-09-26T22:42:23.958Z,100.00
2022-09-26T22:45:12.604Z,100.00
2022-09-26T22:48:00.319Z,100.00
2022-09-26T22:50:48.058Z,100.00
2022-09-26T22:53:39.785Z,100.00
2022-09-26T22:56:27.572Z,100.00
2022-09-26T22:59:17.079Z,100.00
2022-09-26T23:02:05.125Z,100.00
2022-09-26T23:04:53.923Z,100.00
2022-09-26T23:07:42.039Z,100.00
2022-09-26T23:10:33.761Z,100.00
2022-09-26T23:13:23.264Z,100.00
2022-09-26T23:16:16.092Z,100.00
2022-09-26T23:19:04.476Z,100.00
2022-09-26T23:21:52.629Z,100.00
2022-09-26T23:24:40.271Z,100.00
2022-09-26T23:27:29.408Z,100.00
2022-09-26T23:30:18.579Z,100.00
2022-09-26T23:33:08.081Z,100.00
2022-09-26T23:35:59.168Z,100.00
2022-09-26T23:38:47.916Z,100.00
2022-09-26T23:41:35.432Z,100.00
2022-09-26T23:44:23.167Z,100.00
2022-09-26T23:47:11.091Z,100.00
2022-09-26T23:50:00.330Z,100.00
2022-09-26T23:52:48.774Z,100.00
2022-09-26T23:55:36.647Z,100.00
2022-09-26T23:58:24.613Z,100.00
